Terminal Aerodrome Forecast
Issued by NWS

Home | Current Version | Previous Version | Text Only | Print | Product List | Glossary On
Versions: 1 2 3 4 5 6 7 8 9 10 11 12 13 14 15 16 17 18 19 20 21
000
FTUS41 KLWX 251700
TAFMTN
TAF
KMTN 251727Z 2518/2618 29014G27KT P6SM BKN050
     FM252000 29012G21KT P6SM SCT050
     FM252300 28009KT P6SM SCT140
     FM260300 28005KT P6SM FEW250=

USA.gov is the U.S. government's official web portal to all federal, state and local government web resources and services.